Latest Weather Observations for Charles Point

IDD60801

Issued at 7:11 pm CST Sunday 19 August 2018 (issued every 10 minutes, with the page automatically refreshed every 10 minutes)

About weather observations | Map of weather stations | Latest weather observations for NT | Other Formats
Station Details ID: 014031 Name: CHARLES POINT Lat: -12.39 Lon: 130.63 Height: 14.0 m
Data from the previous 72 hours. | See also: Recent months for locations in Northern Territory
Date/Time
CST
Temp
°C
App
Temp
°C
Dew
Point
°C
Rel
Hum
%
Delta-T
°C
Wind Press
QNH
hPa
Press
MSL
hPa
Rain since
9am
mm
Dir  Spd
km/h
Gust
km/h
Spd
kts
Gust
kts
19/07:00pm 26.9 28.1 20.7 69 4.1 NE 15 19 8 10 1012.3 1012.2 0.0
19/06:30pm 27.2 27.8 20.3 66 4.5 NNE 17 24 9 13 1012.0 1011.9 0.0
19/06:00pm 27.5 27.8 20.3 65 4.7 NNE 19 24 10 13 1011.8 1011.7 0.0
19/05:30pm 27.7 28.7 20.3 64 4.9 NNE 15 20 8 11 1011.6 1011.5 0.0
19/05:00pm 27.9 28.9 20.2 63 5.0 NNE 15 22 8 12 1011.6 1011.5 0.0
19/04:30pm 28.2 27.9 19.2 58 5.8 NNE 19 28 10 15 1011.5 1011.4 0.0
19/04:00pm 28.4 28.8 19.1 57 6.0 NNE 15 22 8 12 1011.6 1011.5 0.0
19/03:30pm 28.1 28.6 19.3 58 5.7 NNE 15 20 8 11 1011.9 1011.8 0.0
19/03:00pm 28.2 30.2 20.0 61 5.4 NNE 9 15 5 8 1012.3 1012.2 0.0
19/02:30pm 28.6 30.3 20.1 60 5.6 NNE 11 17 6 9 1012.6 1012.5 0.0
19/02:00pm 27.7 29.5 20.3 64 4.9 NNE 11 15 6 8 1013.1 1013.0 0.0
19/01:30pm 27.8 29.3 19.8 61 5.2 NNE 11 15 6 8 1013.5 1013.4 0.0
19/01:00pm 27.6 29.9 20.7 66 4.6 NNE 9 15 5 8 1013.9 1013.8 0.0
19/12:30pm 27.2 29.4 20.5 67 4.4 NNE 9 15 5 8 1014.1 1014.0 0.0
19/12:00pm 27.9 30.1 20.5 64 4.9 NE 9 13 5 7 1014.6 1014.5 0.0
19/11:30am 27.3 28.9 19.9 64 4.8 NE 11 17 6 9 1015.1 1015.0 0.0
19/11:00am 27.6 29.1 19.7 62 5.1 ENE 11 17 6 9 1015.5 1015.4 0.0
19/10:30am 27.3 29.1 19.6 62 5.0 E 9 15 5 8 1015.8 1015.7 0.0
19/10:00am 26.7 28.9 20.5 69 4.1 E 9 19 5 10 1015.9 1015.8 0.0
19/09:30am 26.0 28.2 20.3 71 3.7 E 9 19 5 10 1015.8 1015.7 0.0
19/09:00am 26.1 28.2 20.2 70 3.8 E 9 17 5 9 1015.7 1015.6 0.0
19/08:30am 25.6 28.3 20.6 74 3.3 E 7 17 4 9 1015.6 1015.5 0.0
19/08:00am 24.1 27.1 20.8 82 2.2 ESE 6 11 3 6 1015.1 1015.0 0.0
19/07:30am 22.3 25.3 20.9 92 0.9 SE 6 7 3 4 1014.8 1014.7 0.0
19/07:00am 21.4 24.1 20.2 93 0.8 SE 6 9 3 5 1014.6 1014.5 0.0
19/06:30am 20.9 23.7 19.6 92 0.8 SSE 4 6 2 3 1014.3 1014.2 0.0
19/06:00am 21.0 23.8 19.7 92 0.8 SSE 4 4 2 2 1014.0 1013.9 0.0
19/05:30am 21.2 24.0 19.7 91 1.0 SE 4 4 2 2 1013.7 1013.6 0.0
19/05:00am 21.6 24.8 19.7 89 1.2 SE 2 2 1 1 1013.6 1013.5 0.0
19/04:30am 22.6 25.3 20.3 87 1.5 SE 6 7 3 4 1013.6 1013.5 0.0
19/04:00am 22.8 25.5 20.7 88 1.4 SE 7 13 4 7 1013.7 1013.6 0.0
19/03:30am 21.8 24.8 20.1 90 1.1 SE 4 7 2 4 1013.4 1013.3 0.0
19/03:00am 21.7 24.4 19.4 87 1.5 SE 4 6 2 3 1013.5 1013.4 0.0
19/02:30am 22.4 25.3 19.8 85 1.7 SE 4 6 2 3 1013.8 1013.7 0.0
19/02:00am 22.6 25.5 19.8 84 1.8 SE 4 4 2 2 1014.0 1013.9 0.0
19/01:30am 22.6 25.6 20.1 86 1.6 ESE 4 7 2 4 1014.1 1014.0 0.0
19/01:00am 23.3 26.8 20.4 84 1.9 E 2 4 1 2 1014.2 1014.1 0.0
19/12:30am 23.7 26.7 21.2 86 1.6 WSW 7 15 4 8 1013.7 1013.6 0.0
19/12:00am 23.8 27.4 21.3 86 1.6 W 4 7 2 4 1013.7 1013.6 0.0
 
Date/Time
CST
Temp
°C
App
Temp
°C
Dew
Point
°C
Rel
Hum
%
Delta-T
°C
Wind Press
QNH
hPa
Press
MSL
hPa
Rain since
9am
mm
Dir  Spd
km/h
Gust
km/h
Spd
kts
Gust
kts
18/11:30pm 23.3 26.2 20.6 85 1.8 SSW 6 11 3 6 1013.7 1013.6 0.0
18/11:00pm 23.4 26.6 20.5 84 1.9 SW 4 7 2 4 1013.6 1013.5 0.0
18/10:30pm 24.0 26.8 20.9 83 2.0 S 7 9 4 5 1013.4 1013.3 0.0
18/10:00pm 24.1 26.8 20.6 81 2.3 SSW 7 9 4 5 1013.1 1013.0 0.0
18/09:30pm 23.9 26.6 20.2 80 2.4 SSW 6 7 3 4 1013.1 1013.0 0.0
18/09:00pm 24.2 27.1 19.9 77 2.8 SSW 4 7 2 4 1012.8 1012.7 0.0
18/08:30pm 24.4 27.0 20.1 77 2.8 SSW 6 9 3 5 1012.7 1012.6 0.0
18/08:00pm 24.7 27.4 19.5 73 3.3 SW 4 6 2 3 1012.5 1012.4 0.0
18/07:30pm 25.1 27.4 19.5 71 3.6 SW 6 11 3 6 1012.1 1012.0 0.0
18/07:00pm 25.5 27.7 19.2 68 4.0 SW 6 7 3 4 1011.8 1011.7 0.0
18/06:30pm 26.5 29.0 19.1 64 4.8 WSW 4 7 2 4 1011.6 1011.5 0.0
18/06:00pm 27.3 29.1 19.6 62 5.0 WNW 9 15 5 8 1011.3 1011.2 0.0
18/05:30pm 27.8 29.9 20.1 63 5.0 NW 9 13 5 7 1011.2 1011.1 0.0
18/05:00pm 27.8 30.0 20.4 64 4.9 NW 9 15 5 8 1011.1 1011.0 0.0
18/04:30pm 28.1 30.0 20.6 63 5.0 NNW 11 15 6 8 1011.0 1010.9 0.0
18/04:00pm 28.5 31.3 20.8 63 5.1 NW 7 13 4 7 1011.1 1011.0 0.0
18/03:30pm 27.6 28.9 20.2 64 4.9 N 13 17 7 9 1011.2 1011.1 0.0
18/03:00pm 27.4 28.3 20.0 64 4.8 NNE 15 19 8 10 1011.2 1011.1 0.0
18/02:30pm 27.7 29.6 19.8 62 5.2 NNE 9 15 5 8 1011.5 1011.4 0.0
18/02:00pm 28.1 30.7 20.4 63 5.1 NNE 7 11 4 6 1011.9 1011.8 0.0
18/01:30pm 27.2 29.4 19.5 62 5.0 NNE 7 9 4 5 1012.5 1012.4 0.0
18/01:00pm 27.8 30.0 19.6 61 5.3 NNE 7 11 4 6 1013.1 1013.0 0.0
18/12:30pm 27.6 30.2 20.4 65 4.7 NNE 7 11 4 6 1013.7 1013.6 0.0
18/12:00pm 27.4 30.1 20.7 67 4.4 NE 7 11 4 6 1014.4 1014.3 0.0
18/11:30am 27.3 29.8 21.1 69 4.1 NE 9 13 5 7 1014.8 1014.7 0.0
18/11:00am 26.8 29.0 20.4 68 4.2 NE 9 13 5 7 1015.3 1015.2 0.0
18/10:30am 26.8 29.0 20.4 68 4.2 ENE 9 13 5 7 1015.7 1015.6 0.0
18/10:00am 26.1 28.5 20.0 69 4.0 ENE 7 13 4 7 1015.8 1015.7 0.0
18/09:30am 26.2 27.8 18.3 61 5.0 E 7 11 4 6 1015.7 1015.6 0.0
18/09:00am 26.4 28.5 19.3 65 4.6 E 7 11 4 6 1015.5 1015.4 0.0
18/08:30am 25.4 28.0 20.0 72 3.5 E 6 9 3 5 1015.1 1015.0 0.0
18/08:00am 23.9 26.5 20.0 79 2.5 SE 6 9 3 5 1014.9 1014.8 0.0
18/07:30am 22.6 25.0 20.1 86 1.6 SE 7 11 4 6 1014.6 1014.5 0.0
18/07:00am 22.4 25.0 20.1 87 1.5 SE 6 11 3 6 1014.2 1014.1 0.0
18/06:30am 22.5 25.2 20.6 89 1.2 ESE 7 13 4 7 1013.9 1013.8 0.0
18/06:00am 22.0 24.7 20.3 90 1.1 ESE 6 9 3 5 1013.3 1013.2 0.0
18/05:30am 22.1 24.8 20.2 89 1.2 SE 6 9 3 5 1013.0 1012.9 0.0
18/05:00am 22.1 24.8 20.2 89 1.2 SE 6 9 3 5 1012.9 1012.8 0.0
18/04:30am 21.7 24.2 19.8 89 1.2 SE 6 9 3 5 1012.8 1012.7 0.0
18/04:00am 21.8 24.1 19.9 89 1.2 SSE 7 9 4 5 1012.5 1012.4 0.0
18/03:30am 22.1 24.5 20.0 88 1.3 SE 7 11 4 6 1012.6 1012.5 0.0
18/03:00am 22.1 24.6 19.8 87 1.5 SE 6 7 3 4 1012.5 1012.4 0.0
18/02:30am 23.1 26.0 19.9 82 2.1 WSW 4 6 2 3 1012.4 1012.3 0.0
18/02:00am 23.3 26.1 19.7 80 2.3 SW 4 6 2 3 1012.6 1012.5 0.0
18/01:30am 23.4 26.1 19.5 79 2.5 SW 4 9 2 5 1012.7 1012.6 0.0
18/01:00am 23.9 26.9 20.0 79 2.5 WSW 4 9 2 5 1012.8 1012.7 0.0
18/12:30am 23.5 26.4 19.8 80 2.4 WSW 4 7 2 4 1013.2 1013.1 0.0
18/12:00am 23.2 26.1 19.8 81 2.2 SW 4 6 2 3 1013.2 1013.1 0.0
 
Date/Time
CST
Temp
°C
App
Temp
°C
Dew
Point
°C
Rel
Hum
%
Delta-T
°C
Wind Press
QNH
hPa
Press
MSL
hPa
Rain since
9am
mm
Dir  Spd
km/h
Gust
km/h
Spd
kts
Gust
kts
17/11:30pm 23.5 26.4 19.8 80 2.4 SW 4 6 2 3 1013.2 1013.1 0.0
17/11:00pm 23.4 26.1 19.5 79 2.5 WSW 4 7 2 4 1013.2 1013.1 0.0
17/10:30pm 23.8 26.5 19.5 77 2.8 WSW 4 7 2 4 1013.1 1013.0 0.0
17/10:00pm 24.2 27.0 19.7 76 2.9 SW 4 7 2 4 1013.0 1012.9 0.0
17/09:30pm 23.8 26.0 19.3 76 2.9 SW 6 7 3 4 1012.8 1012.7 0.0
17/09:00pm 24.0 26.3 19.5 76 2.9 SW 6 7 3 4 1012.7 1012.6 0.0
17/08:30pm 24.1 26.6 19.0 73 3.2 SW 4 7 2 4 1012.4 1012.3 0.0
17/08:00pm 24.4 26.8 18.8 71 3.6 WSW 4 6 2 3 1011.9 1011.8 0.0
17/07:30pm 24.7 27.0 18.6 69 3.9 SW 4 6 2 3 1011.5 1011.4 0.0
17/07:00pm 25.4 28.5 18.6 66 4.3 CALM 0 2 0 1 1011.1 1011.0 0.0
17/06:30pm 26.9 29.2 18.5 60 5.4 NW 4 7 2 4 1010.6 1010.5 0.0
17/06:00pm 26.9 28.6 19.3 63 4.9 N 9 11 5 6 1010.4 1010.3 0.0
17/05:30pm 26.9 28.1 19.0 62 5.1 N 11 13 6 7 1010.0 1009.9 0.0
17/05:00pm 27.1 27.9 18.1 58 5.7 N 11 13 6 7 1009.5 1009.4 0.0
17/04:30pm 27.1 28.7 20.0 65 4.6 N 11 15 6 8 1009.4 1009.3 0.0
17/04:00pm 27.4 29.3 20.5 66 4.5 NNE 11 17 6 9 1009.5 1009.4 0.0
17/03:30pm 27.1 28.9 20.4 66 4.4 NNE 11 19 6 10 1009.5 1009.4 0.0
17/03:00pm 27.1 27.9 20.7 68 4.2 NNE 17 24 9 13 1009.8 1009.7 0.0
17/02:30pm 26.9 27.6 20.5 68 4.2 NNE 17 22 9 12 1010.2 1010.1 0.0
17/02:00pm 27.0 27.9 20.1 66 4.5 NNE 15 19 8 10 1010.6 1010.5 0.0
17/01:30pm 27.1 28.5 20.4 66 4.4 NNE 13 17 7 9 1011.0 1010.9 0.0
17/01:00pm 27.7 28.9 19.8 62 5.1 NNE 13 17 7 9 1011.3 1011.2 0.0
17/12:30pm 27.6 29.2 19.9 63 5.0 NE 11 15 6 8 1011.8 1011.7 0.0
17/12:00pm 27.2 28.9 19.3 62 5.1 NE 9 15 5 8 1012.4 1012.3 0.0
17/11:30am 27.9 29.2 19.4 60 5.5 ENE 11 17 6 9 1012.8 1012.7 0.0
17/11:00am 26.8 28.5 19.4 64 4.8 ENE 9 17 5 9 1013.1 1013.0 0.0
17/10:30am 26.9 27.9 18.7 60 5.2 E 11 17 6 9 1013.5 1013.4 0.0
17/10:00am 26.0 27.2 19.9 69 4.0 E 13 22 7 12 1013.5 1013.4 0.0
17/09:30am 25.4 27.0 20.0 72 3.5 E 11 22 6 12 1013.4 1013.3 0.0
17/09:00am 25.0 26.3 19.4 71 3.6 E 11 20 6 11 1013.4 1013.3 0.0
17/08:30am 24.8 26.1 19.4 72 3.5 E 11 19 6 10 1013.2 1013.1 0.0
17/08:00am 24.5 26.8 19.8 75 3.0 ESE 7 11 4 6 1012.7 1012.6 0.0
17/07:30am 22.9 25.5 20.1 84 1.8 ESE 6 9 3 5 1012.4 1012.3 0.0
17/07:00am 22.7 25.2 19.9 84 1.8 SE 6 9 3 5 1012.3 1012.2 0.0
17/06:30am 22.4 24.9 19.8 85 1.7 SE 6 7 3 4 1012.0 1011.9 0.0
17/06:00am 22.3 24.7 19.7 85 1.7 SSE 6 9 3 5 1011.8 1011.7 0.0
17/05:30am 22.4 24.6 19.6 84 1.8 SSE 7 9 4 5 1011.5 1011.4 0.0
17/05:00am 23.0 25.4 19.6 81 2.2 SSE 6 9 3 5 1011.5 1011.4 0.0
17/04:30am 23.4 25.7 19.5 79 2.5 SSE 6 9 3 5 1011.4 1011.3 0.0
17/04:00am 24.2 27.5 20.7 81 2.3 ESE 4 7 2 4 1011.6 1011.5 0.0
17/03:30am 23.9 27.8 21.2 85 1.8 SE 2 6 1 3 1011.7 1011.6 0.0
17/03:00am 23.7 27.8 20.8 84 1.9 CALM 0 0 0 0 1011.8 1011.7 0.0
17/02:30am 23.9 27.6 20.0 79 2.5 CALM 0 0 0 0 1012.1 1012.0 0.0
17/02:00am 25.2 27.7 21.1 78 2.7 N 9 13 5 7 1012.3 1012.2 0.0
17/01:30am 25.4 27.5 21.7 80 2.5 N 13 19 7 10 1012.4 1012.3 0.0
17/01:00am 23.0 26.7 20.0 83 1.9 CALM 0 0 0 0 1012.5 1012.4 0.0
17/12:30am 22.8 25.9 19.6 82 2.0 S 2 2 1 1 1012.5 1012.4 0.0
17/12:00am 23.0 25.7 19.4 80 2.3 S 4 6 2 3 1012.4 1012.3 0.0
 
Date/Time
CST
Temp
°C
App
Temp
°C
Dew
Point
°C
Rel
Hum
%
Delta-T
°C
Wind Press
QNH
hPa
Press
MSL
hPa
Rain since
9am
mm
Dir  Spd
km/h
Gust
km/h
Spd
kts
Gust
kts
16/11:30pm 23.3 26.1 19.7 80 2.3 SW 4 6 2 3 1012.4 1012.3 0.0
16/11:00pm 23.4 26.0 19.3 78 2.6 SW 4 4 2 2 1012.3 1012.2 0.0
16/10:30pm 23.1 25.3 19.3 79 2.4 SSW 6 7 3 4 1012.3 1012.2 0.0
16/10:00pm 23.2 25.4 19.2 78 2.5 S 6 7 3 4 1012.3 1012.2 0.0
16/09:30pm 23.0 25.0 18.7 77 2.7 SSW 6 7 3 4 1012.3 1012.2 0.0
16/09:00pm 22.9 26.0 18.7 77 2.7 CALM 0 0 0 0 1012.1 1012.0 0.0
16/08:30pm 23.2 26.2 18.5 75 3.0 CALM 0 0 0 0 1011.8 1011.7 0.0
16/08:00pm 23.9 26.8 18.3 71 3.5 CALM 0 0 0 0 1011.5 1011.4 0.0
16/07:30pm 26.4 28.2 18.3 61 5.1 NNE 6 7 3 4 1011.0 1010.9 0.0

Other Formats:

Comma delimited format used in spreadsheet applications
http://www.bom.gov.au/fwo/IDD60801/IDD60801.99510.axf

JavaScript Object Notation format (JSON) in row-major order
http://www.bom.gov.au/fwo/IDD60801/IDD60801.99510.json